Chaleur extrême Valable du: 27-06-2019 05:00 Au: 28-06-2019 05:00 Avertissement pour: Chaleur extrême Niveau: Orange info button

Retrouvez également nos données météorologiques sur:

UK Metoffice

Weather Underground

AWEKAS

Citizen Weather Observer Program (CWOP)



Rapports METAR à proximité

   
LFOJ - Montargis
Mise à jour: 27-06-2019 10:00
Partiellement nuageux  
Partiellement nuageux  
   Vent: ENE 20.4 km/h
Vent: ENE 20.4 km/h
Température: 26°C
Point de rosée: 21°C
Humidité: 74%
Pression atmosphérique: 1021 hPa
Nuages: Partiellement nuageux
Visibilité: 9 km
Nébulosité: Partiellement nuageux
LFOJ 270800Z AUTO 06011KT 9000 NSC 26/21 Q1021 NOSIG
LFOJ - Orléans
Mise à jour: 27-06-2019 10:00
Partiellement nuageux  
Partiellement nuageux  
   Vent: ENE 20.4 km/h
Vent: ENE 20.4 km/h
Température: 26°C
Point de rosée: 21°C
Humidité: 74%
Pression atmosphérique: 1021 hPa
Nuages: Partiellement nuageux
Visibilité: 9 km
Nébulosité: Partiellement nuageux
LFOJ 270800Z AUTO 06011KT 9000 NSC 26/21 Q1021 NOSIG
LFQB - Sens
Mise à jour: 27-06-2019 10:00
Ciel dégagé  
Ciel dégagé  
   Vent: ENE 13 km/h
Vent: ENE 13 km/h
Température: 28°C
Index de chaleur: 30°C
Point de rosée: 21°C
Humidité: 66%
Pression atmosphérique: 1022 hPa
Visibilité: More than 10 km
Nébulosité: Ciel dégagé
LFQB 270800Z AUTO 06007KT 030V100 CAVOK 28/21 Q1022
LFQB - Auxerre
Mise à jour: 27-06-2019 10:00
Ciel dégagé  
Ciel dégagé  
   Vent: ENE 13 km/h
Vent: ENE 13 km/h
Température: 28°C
Index de chaleur: 30°C
Point de rosée: 21°C
Humidité: 66%
Pression atmosphérique: 1022 hPa
Visibilité: More than 10 km
Nébulosité: Ciel dégagé
LFQB 270800Z AUTO 06007KT 030V100 CAVOK 28/21 Q1022
LFPO - Paris
Mise à jour: 27-06-2019 10:00
Ciel dégagé  
Ciel dégagé  
   Vent: NE 16.7 km/h
Vent: NE 16.7 km/h
Température: 24°C
Point de rosée: 19°C
Humidité: 74%
Pression atmosphérique: 1023 hPa
Visibilité: More than 10 km
Nébulosité: Ciel dégagé
LFPO 270800Z 04009KT 360V060 CAVOK 24/19 Q1023 NOSIG
LFLX - Bourges
Mise à jour: 27-06-2019 10:00
Ciel dégagé  
Ciel dégagé  
   Vent: varie 3.7 km/h
Vent: varie 3.7 km/h
Température: 28°C
Index de chaleur: 30°C
Point de rosée: 21°C
Humidité: 66%
Pression atmosphérique: 1020 hPa
Visibilité: More than 10 km
Nébulosité: Ciel dégagé
LFLX 270800Z AUTO VRB02KT CAVOK 28/21 Q1020 NOSIG

Original script by  Saratoga-weather.org Adapted for the template by  Weerstation Leuven